EA1AHA
43.32.74N 005.54.35W
IN73BN aprs.fi
zuletzt gehoert:
2022-12-01T19:48:46Z
zuerst gehoert:
2020-02-10T14:55:30Z

APRS IN73BM, 2 Stunde(n), EA1AHA [20:56:48, 0s].
EA1AHA 43.32.74N 005.54.35WIN73BN 0.584km 340°NNW19:48:46ZWind 000°/000kn, Böen bis 000kn, Temp 11.11c, Regen 0.0mm, letzte 24h 0.0mm, seit 0h 0.0mm, Baro 1021.3h, Hum: 69%(3EA1AHA-13)
MMDVM MMDVM HS 433.5000/433.5000 CC1(2EA1AHA)
EA1DZL 43.33.56N 005.55.78WIN73AN 2.953km 314°NW19:51:33ZMMDVM MMDVM HS Hat 438.8000/438.8000 CC1(3EA1DZL-1)
ED1ZAY 43.29.47N 005.56.54WIN73AL 6.329km 210°SSW19:48:07ZRD625 438.3000/430.7000 CC1
LEGM 43.26.15N 005.49.84WIN73CK 13.042km 153°SSE19:30:02ZHelipuerto de La Morgal (123.500MHz): LEAS 011830Z 11006KT 080V160 9999 FEW030 09/05 Q1019 NOSIG=
LEMR 43.25.83N 005.49.60WIN73CK 13.727km 153°SSE19:30:04ZAerodromo de la Morgal (123.500MHz): LEAS 011830Z 11006KT 080V160 9999 FEW030 09/05 Q1019 NOSIG=
EA1IPU 43.26.21N 005.46.62WIN73CK 15.399km 138°SE19:50:09ZMMDVM MMDVM HS Hat 439.8000/439.8000 CC1(3EA1IPU-1)
EB1TK 43.32.22N 005.42.32WIN73DM 15.976km 91°E19:55:18ZWind 104°/009kn, Böen bis 014kn, Temp 11.67c, Regen 0.0mm, letzte 24h 0.0mm, seit 0h 0.0mm, Baro 1022.4h, Hum: 74%(3EB1TK-13)
EA1ABW 43.24.77N 005.47.77WIN73CJ 16.626km 149°SSE19:49:47ZMMDVM MMDVM HS Hat 439.8250/439.8250 CC1(3EA1ABW-2)
LEEL 43.32.98N 005.41.71WIN73DN 16.804km 87°E19:30:03ZHelipuerto de El Musel: LEAS 011830Z 11006KT 080V160 9999 FEW030 09/05 Q1019 NOSIG=
ED1ZAU 43.23.04N 005.52.75WIN73BJ 17.534km 174°S19:48:03ZRD625 438.5000/430.9000 CC1
EA1FFA 43.31.53N 005.40.64WIN73DM 18.306km 95°E19:50:29ZMMDVM MMDVM HS Hat 438.8000/438.8000 CC1(3EA1FFA-1)
EA1IEJ 43.31.83N 005.40.22WIN73DM 18.814km 93°E19:50:16ZMMDVM DMO 222.3400/222.3400 CC1(3EA1IEJ-11)
EA1DZR 43.31.47N 005.40.00WIN73DM 19.161km 95°E19:50:07ZMMDVM DV ADER 434.3500/434.3500 CC1(3EA1DZR-4)
MMDVM DVMega 431.1000/431.1000 CC1(2EA1DZR-1)
MMDVM MMDVM HS Hat 432.2000/432.2000 CC2(2EA1DZR-2)
LEHU 43.22.63N 005.49.57WIN73CJ 19.222km 161°SSE19:30:03ZHelipuerto del HUCA: LEAS 011830Z 11006KT 080V160 9999 FEW030 09/05 Q1019 NOSIG=
EA1JBU 43.21.85N 005.51.13WIN73BI 20.060km 168°SSE19:32:02ZEA1JBU(3EA1JBU-1)
ED1ZAE 43.27.99N 005.40.54WIN73DL 20.129km 114°ESE19:55:43ZWIDE3-3 ESAS3-3 IN73DL WWW.EA1URG.ORG(3ED1ZAE-3)
33D00 43.21.63N 005.51.13WIN73BI 20.462km 168°SSE19:01:46Z33-D-00 Protección Civil REMER / Delegación del Gobierno en Asturias
ED1ZAS 43.27.52N 005.40.17WIN73DL 20.941km 116°ESE19:48:03ZRD985 438.2250/430.6250 CC1
EA4ACU 43.29.56N 005.38.92WIN73EL 21.211km 104°ESE19:51:00ZMMDVM MMDVM HS Hat 432.7000/432.7000 CC1(3EA4ACU-1)
EA1L 43.20.37N 005.51.13WIN73BI 22.735km 169°S19:55:10Zea1l@ure.es V=13.2V
Wind 049°/002kn, Böen bis 005kn, Temp 7.78c, Regen 0.0mm, letzte 24h 0.0mm, seit 0h 0.0mm, Baro 1017.5h, Hum: 81%(2EA1L-13)
EA1HWX 43.19.28N 005.50.98WIN73BH 24.777km 170°S19:50:33ZDMO - UHF 439.7250/431.0000 CC11(3EA1HWX-2)
MMDVM DMO 222.3400/222.3400 CC1(2EA1HWX-10)
EB1GEM 43.30.00N 005.36.07WIN73EM 24.787km 100°E19:42:08ZWX3in1Plus2.0 U=13.3V,T=??.?C/??.?F(3EB1GEM-3)
EC1KV 43.34.01N 006.16.01WIN63UN 29.418km 276°W19:49:32Z VOLT.=13.7 V - TEMP.=??.? C(3EC1KV-1)
EA1HJA 43.28.10N 005.30.45WIN73FL 32.932km 104°ESE19:41:35ZEA1HJA@URE.ES
IN73FL WX3IN1+ 2.0 - V=13.3V,TX TEMP=22.5C(2EA1HJA-2)
EA1IYK 43.15.18N 005.46.10WIN73CG 33.797km 161°SSE19:36:49Zhttps://aprsdroid.org/(3EA1IYK-10)
EA1JW 43.31.35N 005.28.83WIN73GM 34.155km 93°E19:31:05ZMMDVM MMDVM HS Hat 436.5000/436.5000 CC1(3EA1JW-3)
EA1IMW 43.14.36N 005.46.93WIN73CF 34.913km 164°SSE19:50:10ZGRUPO RADIO GALENA (GRG) 430.4500/430.4500 CC1(3EA1IMW-1)
EA1JAY 43.29.33N 005.26.78WIN73GL 37.305km 99°E19:45:03Z434.525MHz Nodo TETRA DMO(3EA1JAY-4)
EA1JAY(2EA1JAY-2)
EA1FHR 43.28.72N 005.26.41WIN73GL 37.978km 100°E19:48:34ZMMDVM MMDVM HS Hat 439.1500/439.1500 CC1
EA1HWD 43.28.96N 005.26.30WIN73GL 38.058km 100°E19:48:52ZMMDVM MMDVM HS Hat 434.2500/434.2500 CC1
EA1JBL 43.12.28N 005.47.42WIN73CE 38.445km 166°SSE19:48:49ZMMDVM DVMega 435.3000/435.3000 CC1
EB1DGC 43.12.60N 005.45.59WIN73CF 38.555km 162°SSE19:48:36ZMMDVM MMDVM HS Hat 433.4500/433.4500 CC1
EA1HWA 43.12.00N 005.47.40WIN73CE 38.977km 166°SSE19:49:03ZMMDVM MMDVM HS Hat 433.4500/433.4500 CC1
EA1RCG 43.09.45N 005.49.78WIN73CD 43.003km 172°S19:50:04ZGRUPO RADIO GALENA (GRG) 430.4500/430.4500 CC1(3EA1RCG-3)
LETN 43.20.05N 006.22.69WIN63TI 44.686km 239°WSW19:30:03ZAerodromo de La Curiscada (Tineo): LEAS 011830Z 11006KT 080V160 9999 FEW030 09/05 Q1019 NOSIG=

aprs.pl 5.0.011w DL3EL © 2006-2021 [7990476]